createdAt,value
2023-02-26T00:01:40.439Z,99.90
2023-02-26T00:04:09.808Z,99.90
2023-02-26T00:06:39.256Z,99.90
2023-02-26T00:09:07.083Z,99.90
2023-02-26T00:11:34.949Z,99.90
2023-02-26T00:14:02.529Z,99.90
2023-02-26T00:16:33.239Z,99.90
2023-02-26T00:19:04.069Z,99.90
2023-02-26T00:21:33.080Z,99.90
2023-02-26T00:24:02.405Z,99.90
2023-02-26T00:26:32.290Z,99.90
2023-02-26T00:29:00.687Z,99.90
2023-02-26T00:31:28.503Z,99.90
2023-02-26T00:33:57.675Z,99.90
2023-02-26T00:36:40.079Z,99.90
2023-02-26T00:39:26.859Z,99.90
2023-02-26T00:41:54.593Z,99.90
2023-02-26T00:44:22.557Z,99.90
2023-02-26T00:46:54.493Z,99.90
2023-02-26T00:49:47.064Z,99.90
2023-02-26T00:52:29.656Z,99.90
2023-02-26T00:54:58.320Z,99.90
2023-02-26T00:57:25.787Z,99.90
2023-02-26T00:59:54.753Z,99.90
2023-02-26T01:02:23.578Z,99.90
2023-02-26T01:04:53.181Z,99.90
2023-02-26T01:07:25.679Z,99.90
2023-02-26T01:09:57.132Z,99.90
2023-02-26T01:12:27.426Z,99.90
2023-02-26T01:14:55.594Z,99.90
2023-02-26T01:17:23.069Z,99.90
2023-02-26T01:20:05.629Z,99.90
2023-02-26T01:22:55.811Z,99.90
2023-02-26T01:25:32.644Z,99.90
2023-02-26T01:28:00.393Z,99.90
2023-02-26T01:30:28.096Z,99.90
2023-02-26T01:33:01.516Z,99.90
2023-02-26T01:35:38.662Z,99.90
2023-02-26T01:38:28.621Z,99.90
2023-02-26T01:41:02.505Z,99.90
2023-02-26T01:43:42.675Z,99.90
2023-02-26T01:46:37.126Z,99.90
2023-02-26T01:49:06.573Z,99.90
2023-02-26T01:51:45.130Z,99.90
2023-02-26T01:54:13.785Z,99.90
2023-02-26T01:56:42.356Z,99.90
2023-02-26T01:59:14.723Z,99.90
2023-02-26T02:01:42.251Z,99.90
2023-02-26T02:04:16.309Z,99.90
2023-02-26T02:06:46.100Z,99.90
2023-02-26T02:09:13.900Z,99.90
2023-02-26T02:11:58.202Z,99.90
2023-02-26T02:14:56.429Z,99.90
2023-02-26T02:17:26.591Z,99.90
2023-02-26T02:20:23.874Z,99.90
2023-02-26T02:23:00.203Z,99.90
2023-02-26T02:26:07.933Z,99.90
2023-02-26T02:28:41.861Z,99.90
2023-02-26T02:31:34.135Z,99.90
2023-02-26T02:34:05.480Z,99.90
2023-02-26T02:36:54.327Z,99.90
2023-02-26T02:39:48.172Z,99.90
2023-02-26T02:42:30.714Z,99.90
2023-02-26T02:45:24.421Z,99.90
2023-02-26T02:48:02.580Z,99.90
2023-02-26T02:50:37.231Z,99.90
2023-02-26T02:53:10.513Z,99.90
2023-02-26T02:55:48.525Z,99.90
2023-02-26T02:58:20.724Z,99.90
2023-02-26T03:00:55.261Z,99.90
2023-02-26T03:03:49.240Z,99.90
2023-02-26T03:06:18.004Z,99.90
2023-02-26T03:08:47.576Z,99.90
2023-02-26T03:11:16.925Z,99.90
2023-02-26T03:13:46.022Z,99.90
2023-02-26T03:16:55.024Z,99.90
2023-02-26T03:19:44.318Z,99.90
2023-02-26T03:22:17.126Z,99.90
2023-02-26T03:25:17.938Z,99.90
2023-02-26T03:28:03.984Z,99.90
2023-02-26T03:30:55.623Z,99.90
2023-02-26T03:33:34.580Z,99.90
2023-02-26T03:36:09.523Z,99.90
2023-02-26T03:38:57.381Z,99.90
2023-02-26T03:41:42.119Z,99.90
2023-02-26T03:44:43.476Z,99.90
2023-02-26T03:47:14.767Z,99.90
2023-02-26T03:49:50.038Z,99.90
2023-02-26T03:52:17.841Z,99.90
2023-02-26T03:55:33.616Z,99.90
2023-02-26T03:58:23.714Z,99.90
2023-02-26T04:01:09.624Z,99.90
2023-02-26T04:03:50.930Z,99.90
2023-02-26T04:06:20.523Z,99.90
2023-02-26T04:08:48.476Z,99.90
2023-02-26T04:11:19.177Z,99.90
2023-02-26T04:13:47.380Z,99.90
2023-02-26T04:16:15.625Z,99.90
2023-02-26T04:18:43.313Z,99.90
2023-02-26T04:21:15.809Z,99.90
2023-02-26T04:23:43.417Z,99.90
2023-02-26T04:26:11.063Z,99.90
2023-02-26T04:28:41.274Z,99.90
2023-02-26T04:31:10.539Z,99.90
2023-02-26T04:33:39.104Z,99.90
2023-02-26T04:36:06.838Z,99.90
2023-02-26T04:38:34.594Z,99.90
2023-02-26T04:41:02.316Z,99.90
2023-02-26T04:43:29.629Z,99.90
2023-02-26T04:46:18.302Z,99.90
2023-02-26T04:48:45.848Z,99.90
2023-02-26T04:51:13.313Z,99.90
2023-02-26T04:53:40.757Z,99.90
2023-02-26T04:56:08.147Z,99.90
2023-02-26T04:58:35.686Z,99.90
2023-02-26T05:01:08.201Z,99.90
2023-02-26T05:03:35.526Z,99.90
2023-02-26T05:06:02.830Z,99.90
2023-02-26T05:08:30.173Z,99.90
2023-02-26T05:10:57.826Z,99.90
2023-02-26T05:13:25.163Z,99.90
2023-02-26T05:15:55.023Z,99.90
2023-02-26T05:18:23.282Z,99.90
2023-02-26T05:20:54.742Z,99.90
2023-02-26T05:23:22.733Z,99.90
2023-02-26T05:25:50.052Z,99.90
2023-02-26T05:28:18.583Z,99.90
2023-02-26T05:30:45.875Z,99.90
2023-02-26T05:33:13.207Z,99.90
2023-02-26T05:35:40.419Z,99.90
2023-02-26T05:38:07.758Z,99.90
2023-02-26T05:40:35.233Z,99.90
2023-02-26T05:43:02.662Z,99.90
2023-02-26T05:45:30.000Z,99.90
2023-02-26T05:47:57.296Z,99.90
2023-02-26T05:50:24.657Z,99.90
2023-02-26T05:52:51.882Z,99.90
2023-02-26T05:55:19.407Z,99.90
2023-02-26T05:57:46.638Z,99.90
2023-02-26T06:00:14.475Z,99.90
2023-02-26T06:02:42.262Z,99.90
2023-02-26T06:05:09.987Z,99.90
2023-02-26T06:07:37.343Z,99.90
2023-02-26T06:10:05.031Z,99.90
2023-02-26T06:12:32.303Z,99.90
2023-02-26T06:14:59.693Z,99.90
2023-02-26T06:17:27.257Z,99.90
2023-02-26T06:19:54.461Z,99.90
2023-02-26T06:22:21.740Z,99.90
2023-02-26T06:24:48.954Z,99.90
2023-02-26T06:27:16.530Z,99.90
2023-02-26T06:29:43.832Z,99.90
2023-02-26T06:32:11.182Z,99.90
2023-02-26T06:34:38.439Z,99.90
2023-02-26T06:37:05.841Z,99.90
2023-02-26T06:39:33.322Z,99.90
2023-02-26T06:42:00.799Z,99.90
2023-02-26T06:44:28.031Z,99.90
2023-02-26T06:46:55.375Z,99.90
2023-02-26T06:49:22.714Z,99.90
2023-02-26T06:51:50.033Z,99.90
2023-02-26T06:54:17.461Z,99.90
2023-02-26T06:56:44.733Z,99.90
2023-02-26T06:59:12.074Z,99.90
2023-02-26T07:01:39.920Z,99.90
2023-02-26T07:04:07.287Z,99.90
2023-02-26T07:06:34.526Z,99.90
2023-02-26T07:09:02.034Z,99.90
2023-02-26T07:11:29.293Z,99.90
2023-02-26T07:13:56.716Z,99.90
2023-02-26T07:16:24.302Z,99.90
2023-02-26T07:18:51.774Z,99.90
2023-02-26T07:21:19.162Z,99.90
2023-02-26T07:23:46.510Z,99.90
2023-02-26T07:26:13.853Z,99.90
2023-02-26T07:28:41.067Z,99.90
2023-02-26T07:31:08.533Z,99.90
2023-02-26T07:33:35.823Z,99.90
2023-02-26T07:36:03.200Z,99.90
2023-02-26T07:38:30.507Z,99.90
2023-02-26T07:40:58.052Z,99.90
2023-02-26T07:43:25.382Z,99.90
2023-02-26T07:45:54.309Z,99.90
2023-02-26T07:48:21.653Z,99.90
2023-02-26T07:50:52.894Z,99.90
2023-02-26T07:53:20.600Z,99.90
2023-02-26T07:55:48.054Z,99.90
2023-02-26T07:58:15.325Z,99.90
2023-02-26T08:00:42.675Z,99.90
2023-02-26T08:03:09.912Z,99.90
2023-02-26T08:05:37.375Z,99.90
2023-02-26T08:08:05.090Z,99.90
2023-02-26T08:10:32.372Z,99.90
2023-02-26T08:12:59.526Z,99.90
2023-02-26T08:15:26.759Z,99.90
2023-02-26T08:17:54.581Z,99.90
2023-02-26T08:20:25.304Z,99.90
2023-02-26T08:22:52.791Z,99.90
2023-02-26T08:25:20.129Z,99.90
2023-02-26T08:27:47.442Z,99.90
2023-02-26T08:30:15.287Z,99.90
2023-02-26T08:32:43.576Z,99.90
2023-02-26T08:35:11.192Z,99.90
2023-02-26T08:37:39.169Z,99.90
2023-02-26T08:40:13.566Z,99.90
2023-02-26T08:42:42.119Z,99.90
2023-02-26T08:45:09.986Z,99.90
2023-02-26T08:47:42.308Z,99.90
2023-02-26T08:50:16.084Z,99.90
2023-02-26T08:52:43.402Z,99.90
2023-02-26T08:55:11.114Z,99.90
2023-02-26T08:57:38.415Z,99.90
2023-02-26T09:00:10.573Z,99.90
2023-02-26T09:02:38.963Z,99.90
2023-02-26T09:05:06.491Z,99.90
2023-02-26T09:07:33.689Z,99.90
2023-02-26T09:10:01.004Z,99.90
2023-02-26T09:12:28.261Z,99.90
2023-02-26T09:14:55.484Z,99.90
2023-02-26T09:17:22.915Z,99.90
2023-02-26T09:19:50.149Z,99.90
2023-02-26T09:22:17.618Z,99.90
2023-02-26T09:24:44.899Z,99.90
2023-02-26T09:27:12.165Z,99.90
2023-02-26T09:29:39.439Z,99.90
2023-02-26T09:32:08.724Z,99.90
2023-02-26T09:34:36.624Z,99.90
2023-02-26T09:37:05.390Z,99.90
2023-02-26T09:39:33.056Z,99.90
2023-02-26T09:42:09.188Z,99.90
2023-02-26T09:44:38.624Z,99.90
2023-02-26T09:47:21.613Z,99.90
2023-02-26T09:49:56.879Z,99.90
2023-02-26T09:52:41.809Z,99.90
2023-02-26T09:55:17.798Z,99.90
2023-02-26T09:57:47.242Z,99.90
2023-02-26T10:00:47.603Z,99.90
2023-02-26T10:03:30.153Z,99.90
2023-02-26T10:06:21.741Z,99.90
2023-02-26T10:09:09.136Z,99.90
2023-02-26T10:12:10.806Z,99.90
2023-02-26T10:15:04.933Z,99.90
2023-02-26T10:17:52.266Z,99.90
2023-02-26T10:20:46.614Z,99.90
2023-02-26T10:23:43.647Z,99.90
2023-02-26T10:26:17.838Z,99.90
2023-02-26T10:28:51.122Z,99.90
2023-02-26T10:31:25.947Z,99.90
2023-02-26T10:34:15.070Z,99.90
2023-02-26T10:37:08.625Z,99.90
2023-02-26T10:39:55.973Z,99.90
2023-02-26T10:42:30.646Z,99.90
2023-02-26T10:45:06.875Z,99.90
2023-02-26T10:47:59.704Z,99.90
2023-02-26T10:50:27.763Z,99.90
2023-02-26T10:52:56.056Z,99.90
2023-02-26T10:55:43.578Z,99.90
2023-02-26T10:58:23.778Z,99.90
2023-02-26T11:00:56.190Z,99.90
2023-02-26T11:03:42.800Z,99.90
2023-02-26T11:06:15.486Z,99.90
2023-02-26T11:08:45.670Z,99.90
2023-02-26T11:11:55.878Z,99.90
2023-02-26T11:14:26.217Z,99.90
2023-02-26T11:16:57.889Z,99.90
2023-02-26T11:19:31.677Z,99.90
2023-02-26T11:22:02.360Z,99.90
2023-02-26T11:24:37.152Z,99.90
2023-02-26T11:27:08.359Z,99.90
2023-02-26T11:29:41.722Z,99.90
2023-02-26T11:32:21.579Z,99.90
2023-02-26T11:34:51.069Z,99.90
2023-02-26T11:37:23.685Z,99.90
2023-02-26T11:40:10.982Z,99.90
2023-02-26T11:42:48.600Z,99.90
2023-02-26T11:45:18.664Z,99.90
2023-02-26T11:47:48.305Z,99.90
2023-02-26T11:50:23.067Z,99.90
2023-02-26T11:53:05.472Z,99.90
2023-02-26T11:55:36.536Z,99.90
2023-02-26T11:58:17.183Z,99.90
2023-02-26T12:00:46.621Z,99.90
2023-02-26T12:03:28.878Z,99.90
2023-02-26T12:05:59.016Z,99.90
2023-02-26T12:08:40.044Z,99.90
2023-02-26T12:11:32.614Z,99.90
2023-02-26T12:14:18.306Z,99.90
2023-02-26T12:17:16.231Z,99.90
2023-02-26T12:20:01.304Z,99.90
2023-02-26T12:23:02.340Z,99.90
2023-02-26T12:25:29.547Z,99.90
2023-02-26T12:28:37.468Z,99.90
2023-02-26T12:31:40.954Z,99.90
2023-02-26T12:34:35.794Z,99.90
2023-02-26T12:37:16.144Z,99.90
2023-02-26T12:39:57.808Z,99.90
2023-02-26T12:42:25.058Z,99.90
2023-02-26T12:45:25.020Z,99.90
2023-02-26T12:47:58.422Z,99.90
2023-02-26T12:51:02.322Z,99.90
2023-02-26T12:53:41.140Z,99.90
2023-02-26T12:56:19.784Z,99.90
2023-02-26T12:59:02.047Z,99.90
2023-02-26T13:01:37.990Z,99.90
2023-02-26T13:04:29.495Z,99.90
2023-02-26T13:07:35.086Z,99.90
2023-02-26T13:10:15.352Z,99.90
2023-02-26T13:13:17.028Z,99.90
2023-02-26T13:15:44.250Z,99.90
2023-02-26T13:18:34.054Z,99.90
2023-02-26T13:21:09.879Z,99.90
2023-02-26T13:23:48.044Z,99.90
2023-02-26T13:26:16.576Z,96.80
2023-02-26T13:29:07.228Z,96.20
2023-02-26T13:31:49.901Z,94.40
2023-02-26T13:34:58.984Z,91.20
2023-02-26T13:37:28.193Z,84.60
2023-02-26T13:39:55.418Z,82.40
2023-02-26T13:43:07.712Z,84.80
2023-02-26T13:45:34.920Z,90.10
2023-02-26T13:48:11.131Z,90.60
2023-02-26T13:50:54.128Z,90.80
2023-02-26T13:53:24.607Z,89.10
2023-02-26T13:55:53.613Z,86.70
2023-02-26T13:58:23.591Z,80.90
2023-02-26T14:01:08.686Z,80.80
2023-02-26T14:03:46.535Z,78.20
2023-02-26T14:06:39.161Z,74.50
2023-02-26T14:09:21.344Z,72.50
2023-02-26T14:12:18.945Z,73.00
2023-02-26T14:15:28.725Z,76.50
2023-02-26T14:18:19.169Z,79.60
2023-02-26T14:20:46.736Z,78.40
2023-02-26T14:23:32.233Z,78.30
2023-02-26T14:26:06.358Z,79.30
2023-02-26T14:28:42.233Z,80.30
2023-02-26T14:31:17.640Z,75.00
2023-02-26T14:33:59.812Z,73.20
2023-02-26T14:36:42.728Z,71.70
2023-02-26T14:39:34.972Z,74.90
2023-02-26T14:42:16.316Z,75.50
2023-02-26T14:44:49.507Z,73.70
2023-02-26T14:47:17.522Z,72.60
2023-02-26T14:49:48.108Z,70.30
2023-02-26T14:52:32.926Z,71.70
2023-02-26T14:55:35.599Z,73.30
2023-02-26T14:58:06.332Z,72.50
2023-02-26T15:00:47.378Z,73.40
2023-02-26T15:03:35.816Z,76.40
2023-02-26T15:06:22.808Z,79.00
2023-02-26T15:08:59.305Z,83.40
2023-02-26T15:11:44.538Z,85.60
2023-02-26T15:14:32.223Z,87.10
2023-02-26T15:17:14.484Z,90.00
2023-02-26T15:19:56.755Z,91.60
2023-02-26T15:22:38.402Z,93.40
2023-02-26T15:25:11.187Z,93.50
2023-02-26T15:27:39.170Z,94.70
2023-02-26T15:30:07.432Z,94.90
2023-02-26T15:32:38.182Z,96.20
2023-02-26T15:35:18.864Z,97.00
2023-02-26T15:37:57.265Z,99.00
2023-02-26T15:40:27.257Z,99.90
2023-02-26T15:42:56.776Z,99.90
2023-02-26T15:45:27.468Z,99.90
2023-02-26T15:48:00.765Z,99.90
2023-02-26T15:50:31.325Z,99.90
2023-02-26T15:53:02.007Z,99.90
2023-02-26T15:55:35.638Z,99.90
2023-02-26T15:58:06.732Z,99.90
2023-02-26T16:00:36.723Z,99.90
2023-02-26T16:03:04.754Z,99.90
2023-02-26T16:05:32.396Z,99.90
2023-02-26T16:07:59.959Z,99.90
2023-02-26T16:10:42.328Z,99.90
2023-02-26T16:13:17.427Z,99.90
2023-02-26T16:15:45.049Z,99.90
2023-02-26T16:18:18.802Z,99.90
2023-02-26T16:20:49.768Z,99.90
2023-02-26T16:23:22.092Z,99.90
2023-02-26T16:25:56.467Z,99.90
2023-02-26T16:28:33.105Z,99.90
2023-02-26T16:31:04.652Z,99.90
2023-02-26T16:33:35.686Z,99.90
2023-02-26T16:36:14.375Z,99.90
2023-02-26T16:38:49.871Z,99.90
2023-02-26T16:41:22.678Z,99.90
2023-02-26T16:43:57.644Z,99.90
2023-02-26T16:46:31.499Z,99.90
2023-02-26T16:49:06.190Z,99.90
2023-02-26T16:51:40.053Z,99.90
2023-02-26T16:54:25.843Z,99.90
2023-02-26T16:57:11.771Z,99.90
2023-02-26T16:59:43.474Z,99.90
2023-02-26T17:02:16.420Z,99.90
2023-02-26T17:04:43.717Z,99.90
2023-02-26T17:07:27.547Z,99.90
2023-02-26T17:09:59.656Z,99.90
2023-02-26T17:12:48.066Z,99.90
2023-02-26T17:15:36.997Z,99.90
2023-02-26T17:18:04.823Z,99.90
2023-02-26T17:20:41.474Z,99.90
2023-02-26T17:23:09.494Z,99.90
2023-02-26T17:25:39.944Z,99.90
2023-02-26T17:28:08.209Z,99.90
2023-02-26T17:30:35.482Z,99.90
2023-02-26T17:33:08.001Z,99.90
2023-02-26T17:35:35.429Z,99.90
2023-02-26T17:38:03.925Z,99.90
2023-02-26T17:40:36.627Z,99.90
2023-02-26T17:43:04.961Z,99.90
2023-02-26T17:45:33.442Z,99.90
2023-02-26T17:48:01.257Z,99.90
2023-02-26T17:50:43.931Z,99.90
2023-02-26T17:53:11.235Z,99.90
2023-02-26T17:55:39.737Z,99.90
2023-02-26T17:58:12.836Z,99.90
2023-02-26T18:00:42.110Z,99.90
2023-02-26T18:03:11.197Z,99.90
2023-02-26T18:05:40.534Z,99.90
2023-02-26T18:08:16.676Z,99.90
2023-02-26T18:10:43.903Z,99.90
2023-02-26T18:13:11.830Z,99.90
2023-02-26T18:15:39.478Z,99.90
2023-02-26T18:18:06.763Z,99.90
2023-02-26T18:20:34.208Z,99.90
2023-02-26T18:23:01.770Z,99.90
2023-02-26T18:25:29.113Z,99.90
2023-02-26T18:28:00.581Z,99.90
2023-02-26T18:30:31.155Z,99.90
2023-02-26T18:32:58.549Z,99.90
2023-02-26T18:35:27.919Z,99.90
2023-02-26T18:37:55.847Z,99.90
2023-02-26T18:40:25.403Z,99.90
2023-02-26T18:42:53.329Z,99.90
2023-02-26T18:45:21.447Z,99.90
2023-02-26T18:47:49.027Z,99.90
2023-02-26T18:50:18.361Z,99.90
2023-02-26T18:52:45.601Z,99.90
2023-02-26T18:55:13.594Z,99.90
2023-02-26T18:57:42.540Z,99.90
2023-02-26T19:00:15.422Z,99.90
2023-02-26T19:02:44.477Z,99.90
2023-02-26T19:05:12.855Z,99.90
2023-02-26T19:07:41.449Z,99.90
2023-02-26T19:10:13.527Z,99.90
2023-02-26T19:12:41.155Z,99.90
2023-02-26T19:15:10.464Z,99.90
2023-02-26T19:17:37.828Z,99.90
2023-02-26T19:20:05.990Z,99.90
2023-02-26T19:22:33.414Z,99.90
2023-02-26T19:25:00.687Z,99.90
2023-02-26T19:27:28.847Z,99.90
2023-02-26T19:29:56.279Z,99.90
2023-02-26T19:32:26.297Z,99.90
2023-02-26T19:34:54.129Z,99.90
2023-02-26T19:37:21.818Z,99.90
2023-02-26T19:39:49.676Z,99.90
2023-02-26T19:42:17.338Z,99.90
2023-02-26T19:44:44.613Z,99.90
2023-02-26T19:47:11.874Z,99.90
2023-02-26T19:49:39.195Z,99.90
2023-02-26T19:52:08.330Z,99.90
2023-02-26T19:54:35.806Z,99.90
2023-02-26T19:57:03.165Z,99.90
2023-02-26T19:59:30.542Z,99.90
2023-02-26T20:01:57.867Z,99.90
2023-02-26T20:04:25.124Z,99.90
2023-02-26T20:06:52.394Z,99.90
2023-02-26T20:09:20.313Z,99.90
2023-02-26T20:11:47.655Z,99.90
2023-02-26T20:14:15.031Z,99.90
2023-02-26T20:16:42.335Z,99.90
2023-02-26T20:19:09.630Z,99.90
2023-02-26T20:21:36.828Z,99.90
2023-02-26T20:24:05.557Z,99.90
2023-02-26T20:26:33.298Z,99.90
2023-02-26T20:29:00.912Z,99.90
2023-02-26T20:31:28.786Z,99.90
2023-02-26T20:33:56.655Z,99.90
2023-02-26T20:36:23.942Z,99.90
2023-02-26T20:38:51.299Z,99.90
2023-02-26T20:41:19.664Z,99.90
2023-02-26T20:43:47.268Z,99.90
2023-02-26T20:46:14.626Z,99.90
2023-02-26T20:48:43.758Z,99.90
2023-02-26T20:51:12.213Z,99.90
2023-02-26T20:53:40.189Z,99.90
2023-02-26T20:56:07.829Z,99.90
2023-02-26T20:58:35.166Z,99.90
2023-02-26T21:01:02.508Z,99.90
2023-02-26T21:03:29.894Z,99.90
2023-02-26T21:05:57.121Z,99.90
2023-02-26T21:08:24.465Z,99.90
2023-02-26T21:10:52.360Z,99.90
2023-02-26T21:13:19.736Z,99.90
2023-02-26T21:15:48.693Z,99.90
2023-02-26T21:18:16.362Z,99.90
2023-02-26T21:20:43.922Z,99.90
2023-02-26T21:23:11.345Z,99.90
2023-02-26T21:25:40.338Z,99.90
2023-02-26T21:28:07.613Z,99.90
2023-02-26T21:30:35.108Z,99.90
2023-02-26T21:33:03.051Z,99.90
2023-02-26T21:35:30.351Z,99.90
2023-02-26T21:37:57.631Z,99.90
2023-02-26T21:40:25.325Z,99.90
2023-02-26T21:42:52.650Z,99.90
2023-02-26T21:45:19.924Z,99.90
2023-02-26T21:47:47.303Z,99.90
2023-02-26T21:50:14.774Z,99.90
2023-02-26T21:52:41.967Z,99.90
2023-02-26T21:55:12.562Z,99.90
2023-02-26T21:57:40.201Z,99.90
2023-02-26T22:00:10.457Z,99.90
2023-02-26T22:02:40.924Z,99.90
2023-02-26T22:05:11.722Z,99.90
2023-02-26T22:07:39.379Z,99.90
2023-02-26T22:10:08.222Z,99.90
2023-02-26T22:12:35.938Z,99.90
2023-02-26T22:15:03.363Z,99.90
2023-02-26T22:17:31.323Z,99.90
2023-02-26T22:19:58.714Z,99.90
2023-02-26T22:22:27.097Z,99.90
2023-02-26T22:24:54.365Z,99.90
2023-02-26T22:27:22.559Z,99.90
2023-02-26T22:29:49.889Z,99.90
2023-02-26T22:32:17.133Z,99.90
2023-02-26T22:34:46.125Z,99.90
2023-02-26T22:37:13.471Z,99.90
2023-02-26T22:39:40.716Z,99.90
2023-02-26T22:42:09.088Z,99.90
2023-02-26T22:44:36.351Z,99.90
2023-02-26T22:47:03.779Z,99.90
2023-02-26T22:49:31.037Z,99.90
2023-02-26T22:51:58.307Z,99.90
2023-02-26T22:54:25.616Z,99.90
2023-02-26T22:56:52.806Z,99.90
2023-02-26T22:59:19.999Z,99.90
2023-02-26T23:01:47.312Z,99.90
2023-02-26T23:04:14.728Z,99.90
2023-02-26T23:06:42.146Z,99.90
2023-02-26T23:09:09.354Z,99.90
2023-02-26T23:11:36.598Z,99.90
2023-02-26T23:14:04.026Z,99.90
2023-02-26T23:16:31.385Z,99.90
2023-02-26T23:18:58.694Z,99.90
2023-02-26T23:21:26.361Z,99.90
2023-02-26T23:23:53.837Z,99.90
2023-02-26T23:26:21.060Z,99.90
2023-02-26T23:28:48.615Z,99.90
2023-02-26T23:31:15.957Z,99.90
2023-02-26T23:33:43.528Z,99.90
2023-02-26T23:36:11.284Z,99.90
2023-02-26T23:38:38.802Z,99.90
2023-02-26T23:41:06.168Z,99.90
2023-02-26T23:43:33.603Z,99.90
2023-02-26T23:46:00.972Z,99.90
2023-02-26T23:48:28.329Z,99.90
2023-02-26T23:50:56.110Z,99.90
2023-02-26T23:53:23.700Z,99.90
2023-02-26T23:55:57.151Z,99.90
2023-02-26T23:58:26.643Z,99.90
